Time;durP1;ratioP1;P1;durP2;ratioP2;P2;SDS_P1;SDS_P2;PMS_P1;PMS_P2;Temp;Humidity;BMP_temperature;BMP_pressure;BME280_temperature;BME280_humidity;BME280_pressure;Samples;Min_cycle;Max_cycle;Signal;HPM_P1;HPM_P2
2020/12/13 00:01:27;;;;;;;15.15;8.93;;;9.70;99.90;;;;;;4804413;29;20037;-79
2020/12/13 00:03:53;;;;;;;13.80;9.20;;;9.70;99.90;;;;;;4788039;29;20486;-78
2020/12/13 00:06:19;;;;;;;14.90;8.18;;;9.70;99.90;;;;;;4804049;29;20039;-78
2020/12/13 00:08:45;;;;;;;12.13;8.48;;;9.70;99.90;;;;;;4803598;29;20126;-78
2020/12/13 00:11:11;;;;;;;13.68;8.73;;;9.60;99.90;;;;;;4804007;29;20031;-79
2020/12/13 00:13:38;;;;;;;13.88;9.00;;;9.70;99.90;;;;;;4787883;29;20172;-79
2020/12/13 00:16:04;;;;;;;13.98;7.72;;;9.60;99.90;;;;;;4804215;29;20043;-78
2020/12/13 00:18:30;;;;;;;11.57;8.13;;;9.70;99.90;;;;;;4803894;29;20434;-78
2020/12/13 00:20:56;;;;;;;14.85;7.60;;;9.70;99.90;;;;;;4803689;29;20027;-77
2020/12/13 00:23:22;;;;;;;15.40;8.35;;;9.70;99.90;;;;;;4803930;29;20043;-77
2020/12/13 00:25:48;;;;;;;15.50;9.20;;;9.80;99.90;;;;;;4803520;29;20483;-77
2020/12/13 00:28:14;;;;;;;12.90;7.95;;;9.80;99.90;;;;;;4803836;29;20031;-78
2020/12/13 00:30:40;;;;;;;14.48;7.95;;;9.90;99.90;;;;;;4791962;29;20050;-77
2020/12/13 00:33:06;;;;;;;11.38;6.25;;;9.90;99.90;;;;;;4785970;29;20047;-79
2020/12/13 00:35:32;;;;;;;12.48;6.25;;;9.90;99.90;;;;;;4785701;29;20544;-78
2020/12/13 00:37:58;;;;;;;9.07;5.82;;;10.00;99.90;;;;;;4785573;29;20378;-79
2020/12/13 00:40:24;;;;;;;9.85;5.88;;;10.00;99.90;;;;;;4794467;29;20027;-77
2020/12/13 00:42:50;;;;;;;10.63;6.63;;;10.10;99.90;;;;;;4803875;29;20043;-78
2020/12/13 00:45:17;;;;;;;12.27;8.32;;;10.10;99.90;;;;;;4803606;29;20057;-78
2020/12/13 00:47:43;;;;;;;14.52;8.40;;;10.00;99.90;;;;;;4781428;30;20097;-77
2020/12/13 00:50:09;;;;;;;12.25;8.23;;;10.00;99.90;;;;;;4787912;29;20042;-77
2020/12/13 00:52:41;;;;;;;8.65;5.45;;;9.90;99.90;;;;;;4803802;29;20031;-77
2020/12/13 00:55:08;;;;;;;10.60;6.93;;;9.80;99.90;;;;;;4803346;29;20034;-78
2020/12/13 00:57:34;;;;;;;12.05;6.47;;;9.80;99.90;;;;;;4803357;29;20075;-77
2020/12/13 01:00:01;;;;;;;10.60;5.75;;;9.80;99.90;;;;;;4803324;29;20031;-79
2020/12/13 09:00:32;;;;;;;10.45;5.70;;;10.60;99.90;;;;;;4708294;24;19932;-77
2020/12/13 09:03:00;;;;;;;11.10;5.72;;;10.60;99.90;;;;;;4820675;29;20065;-75
2020/12/13 09:05:33;;;;;;;12.25;6.18;;;10.70;99.90;;;;;;4815364;29;20148;-77
2020/12/13 09:08:00;;;;;;;11.77;5.05;;;10.80;99.90;;;;;;4803217;29;20042;-78
2020/12/13 09:10:28;;;;;;;8.55;5.13;;;10.80;99.90;;;;;;4803477;29;20038;-78
2020/12/13 09:12:54;;;;;;;10.18;5.38;;;10.90;99.90;;;;;;4803276;29;20038;-77
2020/12/13 09:15:22;;;;;;;9.10;5.45;;;11.00;99.90;;;;;;4802967;29;20026;-77
2020/12/13 09:18:01;;;;;;;10.98;6.30;;;11.10;99.90;;;;;;4810704;29;20038;-77
2020/12/13 09:20:36;;;;;;;8.02;4.90;;;11.10;99.90;;;;;;4821232;29;20026;-77
2020/12/13 09:23:11;;;;;;;9.27;4.47;;;11.20;99.90;;;;;;4821046;29;20091;-77
2020/12/13 09:25:41;;;;;;;11.05;4.78;;;11.20;99.90;;;;;;4820654;29;20129;-77
2020/12/13 09:28:08;;;;;;;11.20;4.32;;;11.30;99.90;;;;;;4821045;29;20034;-76
2020/12/13 09:30:34;;;;;;;15.82;7.88;;;11.40;99.90;;;;;;4821533;29;20023;-76
2020/12/13 09:33:02;;;;;;;13.02;5.28;;;11.40;99.90;;;;;;4802096;29;20397;-76
2020/12/13 09:35:31;;;;;;;9.70;4.70;;;11.50;99.90;;;;;;4801118;29;20030;-76
2020/12/13 09:38:09;;;;;;;10.48;3.97;;;11.70;99.90;;;;;;4800720;29;20042;-76
2020/12/13 09:40:36;;;;;;;12.73;4.28;;;11.80;99.90;;;;;;4801008;29;20039;-77
2020/12/13 09:43:03;;;;;;;5.95;3.63;;;11.90;99.90;;;;;;4801222;29;20042;-76
2020/12/13 09:45:29;;;;;;;6.85;4.10;;;12.00;99.90;;;;;;4801022;29;20032;-77
2020/12/13 09:47:57;;;;;;;6.55;3.70;;;12.10;99.90;;;;;;4801530;29;20043;-77
2020/12/13 09:50:28;;;;;;;7.40;4.20;;;12.20;99.90;;;;;;4786648;29;20037;-76
2020/12/13 09:52:55;;;;;;;17.75;5.40;;;12.20;99.90;;;;;;4802889;29;20497;-77
2020/12/13 09:55:21;;;;;;;8.35;4.88;;;12.20;99.90;;;;;;4805051;29;20738;-75
2020/12/13 09:57:47;;;;;;;7.93;4.47;;;12.20;99.90;;;;;;4801967;29;20078;-76
2020/12/13 10:00:13;;;;;;;8.57;3.92;;;12.20;99.90;;;;;;4803867;29;20035;-75
2020/12/13 10:02:42;;;;;;;12.48;3.97;;;12.20;99.90;;;;;;4821110;29;20460;-77
2020/12/13 10:05:18;;;;;;;6.07;3.85;;;12.20;99.90;;;;;;4822382;29;20045;-76
2020/12/13 10:10:14;;;;;;;7.22;4.20;;;12.30;99.90;;;;;;4837315;29;20038;-77
2020/12/13 10:12:40;;;;;;;6.65;3.97;;;12.30;99.90;;;;;;4837911;29;20125;-77
2020/12/13 10:15:06;;;;;;;9.18;4.30;;;12.40;99.90;;;;;;4837852;29;20151;-76
2020/12/13 10:17:32;;;;;;;10.45;4.85;;;12.50;99.90;;;;;;4821797;29;20619;-76
2020/12/13 10:19:58;;;;;;;9.85;4.30;;;12.70;99.90;;;;;;4838577;29;20118;-79
2020/12/13 10:22:24;;;;;;;8.65;4.25;;;12.70;99.90;;;;;;4839264;29;20033;-76
2020/12/13 10:24:50;;;;;;;15.20;5.90;;;12.70;99.90;;;;;;4838704;29;20030;-77
2020/12/13 10:27:16;;;;;;;7.50;3.90;;;12.70;99.90;;;;;;4838666;29;20036;-76
2020/12/13 10:29:42;;;;;;;8.10;4.57;;;12.70;99.90;;;;;;4838801;29;20046;-78
2020/12/13 10:32:08;;;;;;;9.05;4.43;;;12.70;99.90;;;;;;4838363;29;20033;-77
2020/12/13 10:34:34;;;;;;;13.30;4.90;;;12.60;99.90;;;;;;4838288;29;20430;-77
2020/12/13 10:37:00;;;;;;;10.93;4.68;;;12.50;99.90;;;;;;4838650;29;20117;-78
2020/12/13 10:39:26;;;;;;;8.10;3.75;;;12.50;99.90;;;;;;4813264;29;20030;-77
2020/12/13 10:41:52;;;;;;;9.57;4.00;;;12.50;99.90;;;;;;4808346;29;20023;-77
2020/12/13 10:44:21;;;;;;;8.65;4.45;;;12.60;99.90;;;;;;4801901;29;20031;-76
2020/12/13 10:46:48;;;;;;;8.57;4.05;;;12.70;99.90;;;;;;4801990;29;20035;-77
2020/12/13 10:49:14;;;;;;;6.07;3.72;;;12.90;99.90;;;;;;4813099;29;20190;-77
2020/12/13 10:51:40;;;;;;;5.38;3.60;;;13.10;99.90;;;;;;4820058;29;20026;-77
2020/12/13 10:54:06;;;;;;;8.55;4.03;;;13.20;99.90;;;;;;4820512;29;20098;-78
2020/12/13 10:56:32;;;;;;;6.70;3.83;;;13.50;99.90;;;;;;4820486;29;20031;-78
2020/12/13 10:58:59;;;;;;;8.02;4.25;;;13.60;99.90;;;;;;4815582;29;20126;-77
2020/12/13 11:01:25;;;;;;;9.63;4.55;;;13.70;99.90;;;;;;4817892;29;20047;-78
2020/12/13 11:03:51;;;;;;;7.78;3.42;;;14.00;99.90;;;;;;4801779;29;20121;-77
2020/12/13 11:06:17;;;;;;;5.18;2.97;;;14.10;99.90;;;;;;4801964;29;20041;-76
2020/12/13 11:08:43;;;;;;;9.70;3.20;;;14.30;99.90;;;;;;4802132;29;20061;-75
2020/12/13 11:11:09;;;;;;;5.68;2.83;;;14.40;99.90;;;;;;4819288;29;20054;-75
2020/12/13 11:13:35;;;;;;;7.70;3.25;;;14.70;99.90;;;;;;4813088;29;20115;-75
2020/12/13 11:16:01;;;;;;;6.15;3.38;;;14.60;99.90;;;;;;4805579;29;20054;-75
2020/12/13 11:18:30;;;;;;;3.88;2.50;;;14.70;99.90;;;;;;4805623;29;20046;-76
2020/12/13 11:20:58;;;;;;;3.65;2.25;;;14.50;99.90;;;;;;4815201;29;20106;-76
2020/12/13 11:23:24;;;;;;;9.57;2.70;;;14.40;99.90;;;;;;4823315;29;20153;-75
2020/12/13 11:25:50;;;;;;;5.18;2.45;;;14.50;99.90;;;;;;4807040;29;20032;-75
2020/12/13 11:28:16;;;;;;;4.97;2.63;;;14.50;99.90;;;;;;4823452;29;20064;-75
2020/12/13 11:30:43;;;;;;;5.85;2.20;;;14.30;99.90;;;;;;4818431;29;20042;-74
2020/12/13 11:33:09;;;;;;;4.85;2.92;;;14.20;99.90;;;;;;4806894;29;20050;-75
2020/12/13 11:35:35;;;;;;;11.70;4.70;;;14.20;99.90;;;;;;4808720;29;20027;-75
2020/12/13 11:38:01;;;;;;;7.38;3.03;;;14.20;99.90;;;;;;4804094;29;20405;-75
2020/12/13 11:40:27;;;;;;;5.15;2.75;;;14.00;99.90;;;;;;4804584;29;20394;-74
2020/12/13 11:42:53;;;;;;;12.32;3.22;;;13.90;99.90;;;;;;4804681;29;20537;-75
2020/12/13 11:45:19;;;;;;;5.32;2.03;;;13.80;99.90;;;;;;4804969;29;20033;-75
2020/12/13 11:47:45;;;;;;;3.10;2.25;;;13.80;99.90;;;;;;4818244;29;20045;-74
2020/12/13 11:50:11;;;;;;;4.07;2.15;;;13.60;99.90;;;;;;4807111;29;20038;-75
2020/12/13 11:52:40;;;;;;;6.32;2.15;;;13.50;99.90;;;;;;4811765;29;20042;-75
2020/12/13 11:55:07;;;;;;;5.85;2.58;;;13.50;99.90;;;;;;4798264;29;20039;-75
2020/12/13 11:57:34;;;;;;;4.82;2.60;;;13.60;99.90;;;;;;4791403;29;20034;-75
2020/12/13 12:00:00;;;;;;;6.20;3.45;;;13.70;99.90;;;;;;4819804;29;20046;-75
2020/12/13 12:02:26;;;;;;;8.95;3.33;;;14.00;99.90;;;;;;4821838;29;20409;-75
2020/12/13 12:04:52;;;;;;;4.47;2.38;;;14.10;99.90;;;;;;4790880;29;20046;-76
2020/12/13 12:07:18;;;;;;;6.45;2.97;;;14.00;99.90;;;;;;4829522;29;20060;-76
2020/12/13 12:09:45;;;;;;;6.70;2.95;;;13.90;99.90;;;;;;4839032;29;20045;-76
2020/12/13 12:12:11;;;;;;;6.10;3.25;;;13.90;99.90;;;;;;4840566;29;20030;-75
2020/12/13 12:14:37;;;;;;;4.68;2.67;;;13.80;99.90;;;;;;4816671;29;20030;-75
2020/12/13 12:17:03;;;;;;;6.38;3.33;;;13.80;99.90;;;;;;4812577;29;20027;-75
2020/12/13 12:19:31;;;;;;;8.70;3.60;;;13.70;99.90;;;;;;4829008;29;20100;-75
2020/12/13 12:21:57;;;;;;;6.45;3.45;;;13.80;99.90;;;;;;4826657;29;20056;-76
2020/12/13 12:24:23;;;;;;;6.72;3.40;;;13.70;99.90;;;;;;4823407;29;20030;-75
2020/12/13 12:26:54;;;;;;;10.60;4.25;;;13.70;99.90;;;;;;4815859;29;20054;-76
2020/12/13 12:29:20;;;;;;;9.02;3.95;;;13.70;99.90;;;;;;4823021;29;20563;-74
2020/12/13 12:31:49;;;;;;;4.78;2.58;;;13.70;99.90;;;;;;4805998;29;20409;-75
2020/12/13 12:34:16;;;;;;;5.97;3.28;;;13.70;99.90;;;;;;4803710;29;20050;-75
2020/12/13 12:36:42;;;;;;;7.55;3.60;;;13.70;99.90;;;;;;4787197;29;20335;-75
2020/12/13 12:39:09;;;;;;;7.03;3.38;;;13.80;99.90;;;;;;4803430;29;20058;-76
2020/12/13 12:41:35;;;;;;;7.50;3.20;;;13.90;99.90;;;;;;4807769;29;20125;-75
2020/12/13 12:44:02;;;;;;;7.95;3.20;;;13.90;99.90;;;;;;4823660;29;20027;-76
2020/12/13 12:46:28;;;;;;;6.57;3.58;;;13.90;99.90;;;;;;4825060;29;20038;-76
2020/12/13 12:48:55;;;;;;;7.43;3.80;;;13.80;99.90;;;;;;4821014;29;20098;-75
2020/12/13 12:51:22;;;;;;;5.18;2.97;;;13.80;99.90;;;;;;4822283;29;20556;-75
2020/12/13 12:53:49;;;;;;;16.27;2.47;;;13.80;99.90;;;;;;4820801;29;20038;-77
2020/12/13 12:56:15;;;;;;;4.88;3.05;;;13.90;99.90;;;;;;4820698;29;20035;-78
2020/12/13 12:59:07;;;;;;;12.93;3.67;;;13.90;99.90;;;;;;4825914;29;20046;-76
2020/12/13 13:01:39;;;;;;;10.05;2.97;;;14.00;99.90;;;;;;4835017;29;20054;-75
2020/12/13 13:04:09;;;;;;;10.15;4.43;;;14.10;99.90;;;;;;4803859;29;20038;-75
2020/12/13 13:11:53;;;;;;;5.30;2.78;;;14.00;99.90;;;;;;4821881;29;20113;-76
2020/12/13 13:14:19;;;;;;;4.53;2.50;;;13.80;99.90;;;;;;4814935;29;20030;-76
2020/12/13 13:17:34;;;;;;;3.35;2.40;;;13.70;99.90;;;;;;4816353;29;20042;-76
2020/12/13 13:20:03;;;;;;;11.40;2.75;;;13.60;99.90;;;;;;4834869;29;20501;-76
2020/12/13 13:22:29;;;;;;;6.82;3.15;;;13.50;99.90;;;;;;4816636;29;20026;-75
2020/12/13 13:25:17;;;;;;;4.38;2.28;;;13.60;99.90;;;;;;4804682;29;20102;-75
2020/12/13 13:28:46;;;;;;;6.63;2.97;;;13.80;99.90;;;;;;4834040;29;20485;-76
2020/12/13 13:31:22;;;;;;;5.30;2.63;;;14.00;99.90;;;;;;4828897;29;20035;-75
2020/12/13 13:34:07;;;;;;;5.30;3.03;;;14.20;99.90;;;;;;4820058;29;20046;-76
2020/12/13 13:36:51;;;;;;;7.13;2.90;;;14.50;99.90;;;;;;4816233;29;20108;-76
2020/12/13 13:39:37;;;;;;;3.13;1.77;;;14.60;99.90;;;;;;4826327;29;20049;-75
2020/12/13 13:42:19;;;;;;;3.17;1.73;;;14.50;99.90;;;;;;4823477;29;20087;-76
2020/12/13 13:45:16;;;;;;;5.32;2.22;;;14.50;99.90;;;;;;4825978;29;20034;-76
2020/12/13 13:50:51;;;;;;;5.43;2.45;;;14.50;99.90;;;;;;4838017;29;20030;-76
2020/12/13 13:53:39;;;;;;;6.90;2.30;;;14.30;99.90;;;;;;4825457;29;20035;-77
2020/12/13 13:56:31;;;;;;;6.15;1.92;;;14.40;99.90;;;;;;4810963;29;20482;-76
2020/12/13 13:59:04;;;;;;;5.40;2.15;;;14.30;99.90;;;;;;4816905;29;20525;-76
2020/12/13 14:01:45;;;;;;;6.20;2.30;;;14.30;99.90;;;;;;4820378;29;20050;-77
2020/12/13 14:04:16;;;;;;;6.30;1.98;;;14.40;99.90;;;;;;4819196;29;20046;-76
2020/12/13 14:07:18;;;;;;;3.88;1.65;;;14.30;99.90;;;;;;4819023;29;20611;-76
2020/12/13 14:09:37;;;;;;;9.40;2.03;;;14.40;99.90;;;;;;4820202;29;20466;-76
2020/12/13 14:12:03;;;;;;;3.33;2.10;;;14.50;99.90;;;;;;4814279;29;20042;-76
2020/12/13 14:14:32;;;;;;;2.35;1.30;;;14.50;99.90;;;;;;4838264;29;20036;-76
2020/12/13 14:16:58;;;;;;;5.80;1.67;;;14.40;99.90;;;;;;4830691;29;20019;-76
2020/12/13 14:19:25;;;;;;;2.25;1.67;;;14.40;99.90;;;;;;4820542;29;20046;-76
2020/12/13 14:21:51;;;;;;;1.92;1.20;;;14.30;99.90;;;;;;4820431;29;20038;-76
2020/12/13 14:24:17;;;;;;;8.27;1.70;;;14.40;99.90;;;;;;4820203;29;20481;-77
2020/12/13 14:26:43;;;;;;;3.78;2.42;;;14.50;99.90;;;;;;4811544;29;20037;-75
2020/12/13 14:29:09;;;;;;;4.43;1.55;;;14.40;99.90;;;;;;4813173;29;20034;-79
2020/12/13 14:31:38;;;;;;;3.58;1.23;;;14.40;99.90;;;;;;4819724;29;20113;-76
2020/12/13 14:34:04;;;;;;;4.97;1.80;;;14.30;99.90;;;;;;4803317;29;20090;-77
2020/12/13 14:36:30;;;;;;;2.83;1.65;;;14.10;99.90;;;;;;4820033;29;20510;-77
2020/12/13 14:38:58;;;;;;;4.30;1.88;;;13.80;99.90;;;;;;4801644;29;20129;-75
2020/12/13 14:41:25;;;;;;;5.30;2.70;;;13.60;99.90;;;;;;4819749;29;20053;-75
2020/12/13 14:43:51;;;;;;;5.90;2.20;;;13.40;99.90;;;;;;4827044;29;20485;-76
2020/12/13 14:46:17;;;;;;;6.57;2.80;;;13.20;99.90;;;;;;4836609;29;20037;-76
2020/12/13 14:48:44;;;;;;;7.60;3.08;;;13.00;99.90;;;;;;4828397;29;20142;-77
2020/12/13 14:51:10;;;;;;;8.32;3.75;;;13.00;99.90;;;;;;4817821;29;20063;-77
2020/12/13 14:53:39;;;;;;;8.15;3.10;;;12.90;99.90;;;;;;4801970;29;20035;-77
2020/12/13 14:56:05;;;;;;;8.40;3.88;;;12.90;99.90;;;;;;4801884;29;20035;-76
2020/12/13 14:58:32;;;;;;;9.93;3.97;;;12.80;99.90;;;;;;4803729;29;20047;-78
2020/12/13 15:00:58;;;;;;;9.38;4.30;;;12.80;99.90;;;;;;4801061;29;20039;-77
2020/12/13 15:03:24;;;;;;;8.40;3.85;;;12.80;99.90;;;;;;4801562;29;20489;-79
2020/12/13 15:05:50;;;;;;;9.23;4.10;;;12.70;99.90;;;;;;4801879;29;20031;-77
2020/12/13 15:08:16;;;;;;;7.60;4.32;;;12.60;99.90;;;;;;4801873;29;20035;-76
2020/12/13 15:10:45;;;;;;;8.93;4.15;;;12.50;99.90;;;;;;4803543;29;20039;-77
2020/12/13 15:13:19;;;;;;;8.60;4.78;;;12.50;99.90;;;;;;4801723;29;20547;-76
2020/12/13 15:16:02;;;;;;;9.30;4.10;;;12.40;99.90;;;;;;4806981;29;20063;-77
2020/12/13 15:18:33;;;;;;;12.07;4.45;;;12.40;99.90;;;;;;4801928;29;20414;-76
2020/12/13 15:20:59;;;;;;;6.97;4.20;;;12.30;99.90;;;;;;4802501;29;20035;-75
2020/12/13 15:23:25;;;;;;;10.20;4.30;;;12.30;99.90;;;;;;4806530;29;20442;-79
2020/12/13 15:25:51;;;;;;;12.40;5.28;;;12.20;99.90;;;;;;4804006;29;20026;-76
2020/12/13 15:28:17;;;;;;;8.73;4.30;;;12.20;99.90;;;;;;4820316;29;20075;-76
2020/12/13 15:30:43;;;;;;;7.78;4.50;;;12.10;99.90;;;;;;4811396;29;20088;-75
2020/12/13 15:33:09;;;;;;;9.10;4.32;;;12.10;99.90;;;;;;4802133;29;20444;-80
2020/12/13 15:35:35;;;;;;;11.70;4.22;;;12.10;99.90;;;;;;4802185;29;20083;-76
2020/12/13 15:38:02;;;;;;;8.52;4.70;;;12.00;99.90;;;;;;4802012;29;20047;-79
2020/12/13 15:40:28;;;;;;;8.25;4.60;;;11.90;99.90;;;;;;4803091;29;20034;-79
2020/12/13 15:42:54;;;;;;;12.43;5.85;;;11.90;99.90;;;;;;4802061;29;20023;-77
2020/12/13 15:45:21;;;;;;;11.85;5.47;;;11.80;99.90;;;;;;4801949;29;20031;-76
2020/12/13 15:47:48;;;;;;;12.07;6.25;;;11.80;99.90;;;;;;4801961;29;20508;-80
2020/12/13 15:50:14;;;;;;;9.27;5.25;;;11.70;99.90;;;;;;4801891;29;20038;-75
2020/12/13 15:52:40;;;;;;;11.98;5.53;;;11.70;99.90;;;;;;4817785;29;20434;-76
2020/12/13 15:55:06;;;;;;;11.88;6.32;;;11.60;99.90;;;;;;4818882;29;20034;-79
2020/12/13 15:57:32;;;;;;;11.52;6.88;;;11.60;99.90;;;;;;4819001;29;20450;-76
2020/12/13 15:59:59;;;;;;;10.63;6.68;;;11.60;99.90;;;;;;4807169;29;20125;-80
2020/12/13 16:02:26;;;;;;;17.02;8.55;;;11.60;99.90;;;;;;4805161;29;20457;-76
2020/12/13 16:04:56;;;;;;;15.32;6.43;;;11.50;99.90;;;;;;4808037;29;20771;-75
2020/12/13 16:07:33;;;;;;;14.07;6.65;;;11.60;99.90;;;;;;4823453;29;20038;-75
2020/12/13 16:09:59;;;;;;;17.27;6.60;;;11.60;99.90;;;;;;4822882;29;20030;-79
2020/12/13 16:12:25;;;;;;;13.55;6.13;;;11.60;99.90;;;;;;4824640;29;20370;-77
2020/12/13 16:14:53;;;;;;;13.10;7.07;;;11.50;99.90;;;;;;4831125;29;20030;-75
2020/12/13 16:17:19;;;;;;;15.25;7.45;;;11.50;99.90;;;;;;4821387;29;20077;-76
2020/12/13 16:19:45;;;;;;;11.68;5.97;;;11.50;99.90;;;;;;4822848;29;20102;-75
2020/12/13 16:22:11;;;;;;;13.52;7.47;;;11.50;99.90;;;;;;4825217;29;20034;-76
2020/12/13 16:24:38;;;;;;;14.18;7.32;;;11.50;99.90;;;;;;4832931;29;20108;-76
2020/12/13 16:27:04;;;;;;;17.00;7.85;;;11.40;99.90;;;;;;4828567;29;20036;-76
2020/12/13 16:29:30;;;;;;;15.65;7.68;;;11.40;99.90;;;;;;4822668;29;20049;-77
2020/12/13 16:31:57;;;;;;;13.23;7.43;;;11.40;99.90;;;;;;4824131;29;20117;-76
2020/12/13 16:34:26;;;;;;;14.82;7.50;;;11.40;99.90;;;;;;4806317;29;20057;-76
2020/12/13 16:36:53;;;;;;;13.60;7.07;;;11.40;99.90;;;;;;4804548;29;20058;-76
2020/12/13 16:39:30;;;;;;;15.93;7.15;;;11.40;99.90;;;;;;4804100;29;20050;-76
2020/12/13 16:42:01;;;;;;;14.02;6.45;;;11.40;99.90;;;;;;4788085;29;20410;-77
2020/12/13 16:44:36;;;;;;;11.18;4.53;;;11.50;99.90;;;;;;4804641;29;20042;-77
2020/12/13 16:47:05;;;;;;;17.02;5.15;;;11.70;99.90;;;;;;4804203;29;20438;-75
2020/12/13 16:54:51;;;;;;;14.93;4.22;;;12.00;99.90;;;;;;4814327;29;20466;-76
2020/12/13 16:57:21;;;;;;;11.13;4.50;;;12.10;99.90;;;;;;4819953;29;20030;-76
2020/12/13 16:59:48;;;;;;;7.95;3.58;;;12.20;99.90;;;;;;4793714;29;20082;-75
2020/12/13 17:02:15;;;;;;;6.20;3.47;;;12.30;99.90;;;;;;4817099;29;20045;-76
2020/12/13 17:04:41;;;;;;;9.18;3.78;;;12.40;99.90;;;;;;4827823;29;20052;-76
2020/12/13 17:07:13;;;;;;;5.68;3.70;;;12.40;99.90;;;;;;4815513;29;20501;-75
2020/12/13 17:09:39;;;;;;;10.73;4.25;;;12.50;99.90;;;;;;4820732;29;20533;-75
2020/12/13 17:12:06;;;;;;;12.35;7.82;;;12.50;99.90;;;;;;4830128;29;20030;-75
2020/12/13 17:14:35;;;;;;;11.25;4.20;;;12.50;99.90;;;;;;4821757;29;20034;-75
2020/12/13 17:17:03;;;;;;;6.93;3.95;;;12.50;99.90;;;;;;4805292;29;20038;-76
2020/12/13 17:19:29;;;;;;;8.55;3.95;;;12.60;99.90;;;;;;4821149;29;20042;-79
2020/12/13 17:21:55;;;;;;;6.57;4.03;;;12.60;99.90;;;;;;4803195;29;20030;-76
2020/12/13 17:24:21;;;;;;;9.02;3.60;;;12.60;99.90;;;;;;4792549;29;20087;-76
2020/12/13 17:26:47;;;;;;;9.88;4.07;;;12.60;99.90;;;;;;4802827;29;20106;-76
2020/12/13 17:29:13;;;;;;;9.27;3.55;;;12.60;99.90;;;;;;4818661;29;20062;-76
2020/12/13 17:31:40;;;;;;;7.47;2.70;;;12.70;99.90;;;;;;4805693;29;20035;-76
2020/12/13 17:34:06;;;;;;;6.13;3.00;;;12.60;99.90;;;;;;4837385;29;20026;-76
2020/12/13 17:36:36;;;;;;;7.63;3.33;;;12.70;99.90;;;;;;4828594;29;20034;-78
2020/12/13 17:39:05;;;;;;;4.57;2.97;;;12.70;99.90;;;;;;4827827;29;20098;-75
2020/12/13 17:41:36;;;;;;;7.55;3.55;;;12.70;99.90;;;;;;4815435;29;20062;-75
2020/12/13 17:44:15;;;;;;;5.15;2.72;;;12.70;99.90;;;;;;4805330;29;20042;-75
2020/12/13 17:46:41;;;;;;;4.85;1.98;;;12.70;99.90;;;;;;4821043;29;20057;-75
2020/12/13 17:49:10;;;;;;;5.20;2.05;;;12.70;99.90;;;;;;4804664;29;20030;-75
2020/12/13 17:54:14;;;;;;;5.18;1.88;;;12.80;99.90;;;;;;4834835;29;20066;-75
2020/12/13 17:56:45;;;;;;;;;;;12.80;99.90;;;;;;4830180;29;20040;-75
2020/12/13 18:01:44;;;;;;;5.38;2.45;;;12.80;99.90;;;;;;4823666;29;20046;-75
2020/12/13 18:04:10;;;;;;;7.70;2.45;;;12.80;99.90;;;;;;4834042;29;20030;-75
2020/12/13 18:06:36;;;;;;;2.63;2.22;;;12.80;99.90;;;;;;4828891;29;20493;-76
2020/12/13 18:09:03;;;;;;;4.63;2.92;;;12.90;99.90;;;;;;4827372;29;20038;-75
2020/12/13 18:11:30;;;;;;;4.80;2.40;;;12.80;99.90;;;;;;4828056;29;20513;-75
2020/12/13 18:13:56;;;;;;;6.47;2.38;;;12.80;99.90;;;;;;4826132;29;20501;-75
2020/12/13 18:16:22;;;;;;;5.05;2.00;;;12.80;99.90;;;;;;4831240;29;20031;-75
2020/12/13 18:18:50;;;;;;;6.18;2.55;;;12.80;99.90;;;;;;4830032;29;20057;-75
2020/12/13 18:21:26;;;;;;;5.53;2.85;;;12.80;99.90;;;;;;4824945;29;20521;-75
2020/12/13 18:23:53;;;;;;;8.93;3.78;;;12.80;99.90;;;;;;4809771;29;20514;-76
2020/12/13 18:26:19;;;;;;;9.70;5.30;;;12.80;99.90;;;;;;4832636;29;20041;-75
2020/12/13 18:28:48;;;;;;;8.45;3.40;;;12.80;99.90;;;;;;4829774;29;20030;-76
2020/12/13 18:31:17;;;;;;;6.63;3.60;;;12.70;99.90;;;;;;4825727;29;20030;-76
2020/12/13 18:33:44;;;;;;;11.77;3.70;;;12.70;99.90;;;;;;4808974;29;20490;-76
2020/12/13 18:36:16;;;;;;;5.50;2.97;;;12.70;99.90;;;;;;4833700;29;20629;-75
2020/12/13 18:38:42;;;;;;;4.88;2.90;;;12.80;99.90;;;;;;4828838;29;20060;-76
2020/12/13 18:41:12;;;;;;;8.85;3.22;;;12.80;99.90;;;;;;4826486;29;20062;-78
2020/12/13 18:43:39;;;;;;;9.02;4.00;;;12.80;99.90;;;;;;4819021;29;20062;-75
2020/12/13 18:46:05;;;;;;;6.15;2.88;;;12.80;99.90;;;;;;4818206;29;20049;-75
2020/12/13 18:48:32;;;;;;;7.68;3.40;;;12.80;99.90;;;;;;4820396;29;20069;-76
2020/12/13 18:50:58;;;;;;;8.07;3.25;;;12.80;99.90;;;;;;4822057;29;20094;-75
2020/12/13 18:53:24;;;;;;;8.95;2.92;;;12.70;99.90;;;;;;4830461;29;20065;-75
2020/12/13 18:55:50;;;;;;;5.47;3.28;;;12.70;99.90;;;;;;4804441;29;20512;-75
2020/12/13 18:58:16;;;;;;;9.77;3.25;;;12.70;99.90;;;;;;4814419;29;20368;-76
2020/12/13 19:00:43;;;;;;;7.68;3.08;;;12.60;99.90;;;;;;4829237;29;20046;-76
2020/12/13 19:05:39;;;;;;;6.18;2.60;;;12.60;99.90;;;;;;4823613;29;20452;-79
2020/12/13 19:08:08;;;;;;;5.60;2.40;;;12.70;99.90;;;;;;4832519;29;20029;-75
2020/12/13 19:10:34;;;;;;;7.82;2.53;;;12.70;99.90;;;;;;4828219;29;20038;-77
2020/12/13 19:13:00;;;;;;;7.45;3.42;;;12.60;99.90;;;;;;4810980;29;20034;-79
2020/12/13 19:15:27;;;;;;;3.70;2.70;;;12.70;99.90;;;;;;4834288;29;20454;-76
2020/12/13 19:17:53;;;;;;;7.05;2.13;;;12.70;99.90;;;;;;4819762;29;20038;-77
2020/12/13 19:20:19;;;;;;;5.78;1.88;;;12.70;99.90;;;;;;4819850;29;20097;-76
2020/12/13 19:22:45;;;;;;;10.98;2.47;;;12.80;99.90;;;;;;4820427;29;20038;-76
2020/12/13 19:25:11;;;;;;;6.80;2.50;;;12.80;99.90;;;;;;4808957;29;20030;-77
2020/12/13 19:27:38;;;;;;;9.35;2.33;;;12.80;99.90;;;;;;4834870;29;20026;-77
2020/12/13 19:30:07;;;;;;;8.65;2.42;;;12.80;99.90;;;;;;4823337;29;20036;-76
2020/12/13 19:32:33;;;;;;;6.82;2.33;;;12.80;99.90;;;;;;4831274;29;20065;-76
2020/12/13 19:34:59;;;;;;;7.50;2.90;;;12.80;99.90;;;;;;4834190;29;20125;-75
2020/12/13 19:37:25;;;;;;;14.57;3.42;;;12.80;99.90;;;;;;4827030;29;20481;-76
2020/12/13 19:39:52;;;;;;;5.70;2.50;;;12.80;99.90;;;;;;4821342;29;20516;-75
2020/12/13 19:42:19;;;;;;;5.65;2.88;;;12.80;99.90;;;;;;4835199;29;20058;-75
2020/12/13 19:44:45;;;;;;;9.07;3.22;;;12.80;99.90;;;;;;4832203;29;20103;-76
2020/12/13 19:47:11;;;;;;;9.68;3.17;;;12.80;99.90;;;;;;4828532;29;20066;-76
2020/12/13 19:49:38;;;;;;;8.48;2.80;;;12.80;99.90;;;;;;4831617;29;20034;-77
2020/12/13 19:52:08;;;;;;;4.88;2.30;;;12.70;99.90;;;;;;4836816;29;20036;-76
2020/12/13 19:54:35;;;;;;;7.00;3.45;;;12.70;99.90;;;;;;4829947;29;20520;-77
2020/12/13 19:57:13;;;;;;;6.60;1.65;;;12.80;99.90;;;;;;4829512;29;20034;-77
2020/12/13 19:59:42;;;;;;;7.05;2.42;;;12.80;99.90;;;;;;4835013;29;20640;-77
2020/12/13 20:02:09;;;;;;;3.53;2.17;;;12.80;99.90;;;;;;4836690;29;20053;-76
2020/12/13 20:04:35;;;;;;;4.90;2.38;;;12.80;99.90;;;;;;4831419;29;20038;-75
2020/12/13 20:07:02;;;;;;;5.40;2.20;;;12.80;99.90;;;;;;4829361;29;20022;-76
2020/12/13 20:09:28;;;;;;;4.15;2.67;;;12.80;99.90;;;;;;4836722;29;20118;-77
2020/12/13 20:11:57;;;;;;;3.72;2.65;;;12.80;99.90;;;;;;4825757;29;20150;-75
2020/12/13 20:55:37;;;;;;;3.92;2.90;;;12.70;99.90;;;;;;4826125;29;20045;-78
2020/12/13 21:19:11;;;;;;;9.10;2.83;;;12.90;99.90;;;;;;4822512;29;20121;-77
2020/12/13 21:21:43;;;;;;;5.55;2.92;;;12.90;99.90;;;;;;4836309;29;20061;-76
2020/12/13 21:44:54;;;;;;;9.05;3.35;;;12.80;99.90;;;;;;4830955;29;20120;-76
2020/12/13 21:52:37;;;;;;;5.05;2.47;;;12.70;99.90;;;;;;4821549;29;20044;-76
2020/12/13 21:55:17;;;;;;;9.57;2.78;;;12.70;99.90;;;;;;4807737;29;20035;-75
2020/12/13 21:57:43;;;;;;;7.25;3.03;;;12.60;99.90;;;;;;4816418;29;20370;-75
2020/12/13 22:03:19;;;;;;;6.18;2.58;;;12.60;99.90;;;;;;4824114;29;20056;-74
2020/12/13 22:06:35;;;;;;;6.60;2.63;;;12.50;99.90;;;;;;4809943;29;20054;-75
2020/12/13 22:18:51;;;;;;;6.85;2.85;;;12.60;99.90;;;;;;4828412;29;20034;-78
2020/12/13 22:28:34;;;;;;;7.93;3.08;;;12.50;99.90;;;;;;4824486;29;20038;-76
2020/12/13 22:31:00;;;;;;;3.40;1.92;;;12.50;99.90;;;;;;4835305;29;20041;-76
2020/12/13 22:33:26;;;;;;;3.92;2.53;;;12.60;99.90;;;;;;4820538;29;20030;-75
2020/12/13 22:35:52;;;;;;;13.98;3.22;;;12.60;99.90;;;;;;4819287;29;20041;-75
2020/12/13 22:38:18;;;;;;;9.52;2.78;;;12.60;99.90;;;;;;4820611;29;20155;-75
2020/12/13 22:40:44;;;;;;;9.13;3.00;;;12.60;99.90;;;;;;4819383;29;20079;-77
2020/12/13 22:43:10;;;;;;;9.57;2.88;;;12.60;99.90;;;;;;4820722;29;20034;-75
2020/12/13 22:45:36;;;;;;;9.60;3.53;;;12.50;99.90;;;;;;4819102;29;20037;-74
2020/12/13 22:48:03;;;;;;;4.47;2.33;;;12.50;99.90;;;;;;4829211;29;20113;-75
2020/12/13 22:50:30;;;;;;;10.57;2.58;;;12.50;99.90;;;;;;4802198;29;20405;-75
2020/12/13 22:52:56;;;;;;;19.92;3.08;;;12.50;99.90;;;;;;4817954;29;20488;-75
2020/12/13 22:55:22;;;;;;;6.30;2.10;;;12.40;99.90;;;;;;4833276;29;20117;-75
2020/12/13 22:57:48;;;;;;;8.50;2.85;;;12.40;99.90;;;;;;4828313;29;20379;-75
2020/12/13 23:00:19;;;;;;;9.07;2.97;;;12.40;99.90;;;;;;4833605;29;20483;-78
2020/12/13 23:02:45;;;;;;;8.00;2.65;;;12.40;99.90;;;;;;4823009;29;20077;-74